sensor_id;sensor_type;location;lat;lon;timestamp;temperature;humidity
19970;DHT22;10146;47.754;9.566;2024-03-22T00:00:13;7.90;99.90
19970;DHT22;10146;47.754;9.566;2024-03-22T00:02:39;8.00;99.90
19970;DHT22;10146;47.754;9.566;2024-03-22T00:05:04;8.00;99.90
19970;DHT22;10146;47.754;9.566;2024-03-22T00:07:30;8.00;99.90
19970;DHT22;10146;47.754;9.566;2024-03-22T00:09:56;8.00;99.90
19970;DHT22;10146;47.754;9.566;2024-03-22T00:12:22;7.90;99.90
19970;DHT22;10146;47.754;9.566;2024-03-22T00:14:48;7.80;99.90
19970;DHT22;10146;47.754;9.566;2024-03-22T00:17:13;7.80;99.90
19970;DHT22;10146;47.754;9.566;2024-03-22T00:19:39;7.80;99.90
19970;DHT22;10146;47.754;9.566;2024-03-22T00:22:05;7.80;99.90
19970;DHT22;10146;47.754;9.566;2024-03-22T00:24:30;7.80;99.90
19970;DHT22;10146;47.754;9.566;2024-03-22T00:26:56;7.80;99.90
19970;DHT22;10146;47.754;9.566;2024-03-22T00:29:21;7.80;99.90
19970;DHT22;10146;47.754;9.566;2024-03-22T00:31:47;7.70;99.90
19970;DHT22;10146;47.754;9.566;2024-03-22T00:34:13;7.70;99.90
19970;DHT22;10146;47.754;9.566;2024-03-22T00:36:38;7.50;99.90
19970;DHT22;10146;47.754;9.566;2024-03-22T00:39:04;7.50;99.90
19970;DHT22;10146;47.754;9.566;2024-03-22T00:41:30;7.50;99.90
19970;DHT22;10146;47.754;9.566;2024-03-22T00:43:56;7.50;99.90
19970;DHT22;10146;47.754;9.566;2024-03-22T00:46:22;7.50;99.90
19970;DHT22;10146;47.754;9.566;2024-03-22T00:48:48;7.50;99.90
19970;DHT22;10146;47.754;9.566;2024-03-22T00:51:13;7.40;99.90
19970;DHT22;10146;47.754;9.566;2024-03-22T00:53:39;7.30;99.90
19970;DHT22;10146;47.754;9.566;2024-03-22T00:56:05;7.30;99.90
19970;DHT22;10146;47.754;9.566;2024-03-22T00:58:30;7.30;99.90
19970;DHT22;10146;47.754;9.566;2024-03-22T01:00:56;7.20;99.90
19970;DHT22;10146;47.754;9.566;2024-03-22T01:03:22;7.10;99.90
19970;DHT22;10146;47.754;9.566;2024-03-22T01:05:47;7.10;99.90
19970;DHT22;10146;47.754;9.566;2024-03-22T01:08:13;7.10;99.90
19970;DHT22;10146;47.754;9.566;2024-03-22T01:10:40;7.10;99.90
19970;DHT22;10146;47.754;9.566;2024-03-22T01:13:06;7.20;99.90
19970;DHT22;10146;47.754;9.566;2024-03-22T01:15:32;7.20;99.90
19970;DHT22;10146;47.754;9.566;2024-03-22T01:17:58;7.20;99.90
19970;DHT22;10146;47.754;9.566;2024-03-22T01:20:24;7.20;99.90
19970;DHT22;10146;47.754;9.566;2024-03-22T01:22:49;7.10;99.90
19970;DHT22;10146;47.754;9.566;2024-03-22T01:25:15;7.10;99.90
19970;DHT22;10146;47.754;9.566;2024-03-22T01:27:40;7.00;99.90
19970;DHT22;10146;47.754;9.566;2024-03-22T01:30:06;6.90;99.90
19970;DHT22;10146;47.754;9.566;2024-03-22T01:32:32;6.80;99.90
19970;DHT22;10146;47.754;9.566;2024-03-22T01:34:58;6.80;99.90
19970;DHT22;10146;47.754;9.566;2024-03-22T01:37:23;6.70;99.90
19970;DHT22;10146;47.754;9.566;2024-03-22T01:39:49;6.70;99.90
19970;DHT22;10146;47.754;9.566;2024-03-22T01:42:15;6.70;99.90
19970;DHT22;10146;47.754;9.566;2024-03-22T01:44:41;6.60;99.90
19970;DHT22;10146;47.754;9.566;2024-03-22T01:47:07;6.60;99.90
19970;DHT22;10146;47.754;9.566;2024-03-22T01:49:32;6.60;99.90
19970;DHT22;10146;47.754;9.566;2024-03-22T01:51:58;6.60;99.90
19970;DHT22;10146;47.754;9.566;2024-03-22T01:54:24;6.50;99.90
19970;DHT22;10146;47.754;9.566;2024-03-22T01:56:49;6.50;99.90
19970;DHT22;10146;47.754;9.566;2024-03-22T01:59:15;6.40;99.90
19970;DHT22;10146;47.754;9.566;2024-03-22T02:01:42;6.40;99.90
19970;DHT22;10146;47.754;9.566;2024-03-22T02:04:07;6.20;99.90
19970;DHT22;10146;47.754;9.566;2024-03-22T02:06:33;6.10;99.90
19970;DHT22;10146;47.754;9.566;2024-03-22T02:09:00;6.10;99.90
19970;DHT22;10146;47.754;9.566;2024-03-22T02:11:26;6.00;99.90
19970;DHT22;10146;47.754;9.566;2024-03-22T02:13:52;6.10;99.90
19970;DHT22;10146;47.754;9.566;2024-03-22T02:16:17;6.10;99.90
19970;DHT22;10146;47.754;9.566;2024-03-22T02:18:43;6.10;99.90
19970;DHT22;10146;47.754;9.566;2024-03-22T02:21:10;6.00;99.90
19970;DHT22;10146;47.754;9.566;2024-03-22T02:23:37;5.90;99.90
19970;DHT22;10146;47.754;9.566;2024-03-22T02:26:04;5.90;99.90
19970;DHT22;10146;47.754;9.566;2024-03-22T02:28:30;5.80;99.90
19970;DHT22;10146;47.754;9.566;2024-03-22T02:30:57;5.90;99.90
19970;DHT22;10146;47.754;9.566;2024-03-22T02:33:23;5.90;99.90
19970;DHT22;10146;47.754;9.566;2024-03-22T02:35:49;5.90;99.90
19970;DHT22;10146;47.754;9.566;2024-03-22T02:38:16;5.80;99.90
19970;DHT22;10146;47.754;9.566;2024-03-22T02:40:44;5.80;99.90
19970;DHT22;10146;47.754;9.566;2024-03-22T02:43:09;5.80;99.90
19970;DHT22;10146;47.754;9.566;2024-03-22T02:45:35;5.90;99.90
19970;DHT22;10146;47.754;9.566;2024-03-22T02:48:01;5.90;99.90
19970;DHT22;10146;47.754;9.566;2024-03-22T02:50:26;5.90;99.90
19970;DHT22;10146;47.754;9.566;2024-03-22T02:52:52;5.90;99.90
19970;DHT22;10146;47.754;9.566;2024-03-22T02:55:18;5.90;99.90
19970;DHT22;10146;47.754;9.566;2024-03-22T02:57:43;5.90;99.90
19970;DHT22;10146;47.754;9.566;2024-03-22T03:00:09;5.90;99.90
19970;DHT22;10146;47.754;9.566;2024-03-22T03:02:35;6.00;99.90
19970;DHT22;10146;47.754;9.566;2024-03-22T03:05:01;5.90;99.90
19970;DHT22;10146;47.754;9.566;2024-03-22T03:07:27;5.90;99.90
19970;DHT22;10146;47.754;9.566;2024-03-22T03:09:55;5.90;99.90
19970;DHT22;10146;47.754;9.566;2024-03-22T03:12:21;5.90;99.90
19970;DHT22;10146;47.754;9.566;2024-03-22T03:14:46;5.90;99.90
19970;DHT22;10146;47.754;9.566;2024-03-22T03:17:12;5.90;99.90
19970;DHT22;10146;47.754;9.566;2024-03-22T03:19:37;5.80;99.90
19970;DHT22;10146;47.754;9.566;2024-03-22T03:22:03;5.80;99.90
19970;DHT22;10146;47.754;9.566;2024-03-22T03:24:29;5.90;99.90
19970;DHT22;10146;47.754;9.566;2024-03-22T03:26:55;5.80;99.90
19970;DHT22;10146;47.754;9.566;2024-03-22T03:29:20;5.70;99.90
19970;DHT22;10146;47.754;9.566;2024-03-22T03:31:46;5.70;99.90
19970;DHT22;10146;47.754;9.566;2024-03-22T03:34:11;5.70;99.90
19970;DHT22;10146;47.754;9.566;2024-03-22T03:36:37;5.60;99.90
19970;DHT22;10146;47.754;9.566;2024-03-22T03:39:03;5.50;99.90
19970;DHT22;10146;47.754;9.566;2024-03-22T03:41:29;5.50;99.90
19970;DHT22;10146;47.754;9.566;2024-03-22T03:43:55;5.50;99.90
19970;DHT22;10146;47.754;9.566;2024-03-22T03:46:20;5.50;99.90
19970;DHT22;10146;47.754;9.566;2024-03-22T03:48:46;5.60;99.90
19970;DHT22;10146;47.754;9.566;2024-03-22T03:51:11;5.70;99.90
19970;DHT22;10146;47.754;9.566;2024-03-22T03:53:37;5.60;99.90
19970;DHT22;10146;47.754;9.566;2024-03-22T03:56:03;5.70;99.90
19970;DHT22;10146;47.754;9.566;2024-03-22T03:58:28;5.70;99.90
19970;DHT22;10146;47.754;9.566;2024-03-22T04:00:54;5.60;99.90
19970;DHT22;10146;47.754;9.566;2024-03-22T04:03:20;5.60;99.90
19970;DHT22;10146;47.754;9.566;2024-03-22T04:05:45;5.50;99.90
19970;DHT22;10146;47.754;9.566;2024-03-22T04:08:11;5.50;99.90
19970;DHT22;10146;47.754;9.566;2024-03-22T04:10:36;5.60;99.90
19970;DHT22;10146;47.754;9.566;2024-03-22T04:13:02;5.60;99.90
19970;DHT22;10146;47.754;9.566;2024-03-22T04:15:28;5.50;99.90
19970;DHT22;10146;47.754;9.566;2024-03-22T04:17:56;5.50;99.90
19970;DHT22;10146;47.754;9.566;2024-03-22T04:20:22;5.50;99.90
19970;DHT22;10146;47.754;9.566;2024-03-22T04:22:48;5.50;99.90
19970;DHT22;10146;47.754;9.566;2024-03-22T04:25:17;5.40;99.90
19970;DHT22;10146;47.754;9.566;2024-03-22T04:27:42;5.40;99.90
19970;DHT22;10146;47.754;9.566;2024-03-22T04:30:09;5.40;99.90
19970;DHT22;10146;47.754;9.566;2024-03-22T04:32:35;5.30;99.90
19970;DHT22;10146;47.754;9.566;2024-03-22T04:35:02;5.30;99.90
19970;DHT22;10146;47.754;9.566;2024-03-22T04:37:27;5.30;99.90
19970;DHT22;10146;47.754;9.566;2024-03-22T04:39:53;5.40;99.90
19970;DHT22;10146;47.754;9.566;2024-03-22T04:42:18;5.30;99.90
19970;DHT22;10146;47.754;9.566;2024-03-22T04:44:45;5.20;99.90
19970;DHT22;10146;47.754;9.566;2024-03-22T04:47:10;5.20;99.90
19970;DHT22;10146;47.754;9.566;2024-03-22T04:49:36;5.20;99.90
19970;DHT22;10146;47.754;9.566;2024-03-22T04:52:01;5.10;99.90
19970;DHT22;10146;47.754;9.566;2024-03-22T04:54:27;5.10;99.90
19970;DHT22;10146;47.754;9.566;2024-03-22T04:56:52;5.20;99.90
19970;DHT22;10146;47.754;9.566;2024-03-22T04:59:18;5.10;99.90
19970;DHT22;10146;47.754;9.566;2024-03-22T05:01:44;5.20;99.90
19970;DHT22;10146;47.754;9.566;2024-03-22T05:04:12;5.20;99.90
19970;DHT22;10146;47.754;9.566;2024-03-22T05:06:37;5.20;99.90
19970;DHT22;10146;47.754;9.566;2024-03-22T05:09:03;5.20;99.90
19970;DHT22;10146;47.754;9.566;2024-03-22T05:11:29;5.20;99.90
19970;DHT22;10146;47.754;9.566;2024-03-22T05:13:54;5.20;99.90
19970;DHT22;10146;47.754;9.566;2024-03-22T05:16:20;5.30;99.90
19970;DHT22;10146;47.754;9.566;2024-03-22T05:18:46;5.20;99.90
19970;DHT22;10146;47.754;9.566;2024-03-22T05:21:11;5.20;99.90
19970;DHT22;10146;47.754;9.566;2024-03-22T05:23:37;5.10;99.90
19970;DHT22;10146;47.754;9.566;2024-03-22T05:26:02;5.00;99.90
19970;DHT22;10146;47.754;9.566;2024-03-22T05:28:29;5.00;99.90
19970;DHT22;10146;47.754;9.566;2024-03-22T05:30:56;5.10;99.90
19970;DHT22;10146;47.754;9.566;2024-03-22T05:33:21;5.10;99.90
19970;DHT22;10146;47.754;9.566;2024-03-22T05:35:47;5.20;99.90
19970;DHT22;10146;47.754;9.566;2024-03-22T05:38:12;5.20;99.90
19970;DHT22;10146;47.754;9.566;2024-03-22T05:40:38;5.10;99.90
19970;DHT22;10146;47.754;9.566;2024-03-22T05:43:04;5.20;99.90
19970;DHT22;10146;47.754;9.566;2024-03-22T05:45:29;5.20;99.90
19970;DHT22;10146;47.754;9.566;2024-03-22T05:47:55;5.20;99.90
19970;DHT22;10146;47.754;9.566;2024-03-22T05:50:21;5.20;99.90
19970;DHT22;10146;47.754;9.566;2024-03-22T05:52:47;5.10;99.90
19970;DHT22;10146;47.754;9.566;2024-03-22T05:55:12;5.20;99.90
19970;DHT22;10146;47.754;9.566;2024-03-22T05:57:38;5.20;99.90
19970;DHT22;10146;47.754;9.566;2024-03-22T06:00:05;5.20;99.90
19970;DHT22;10146;47.754;9.566;2024-03-22T06:02:32;5.30;99.90
19970;DHT22;10146;47.754;9.566;2024-03-22T06:04:58;5.30;99.90
19970;DHT22;10146;47.754;9.566;2024-03-22T06:07:24;5.20;99.90
19970;DHT22;10146;47.754;9.566;2024-03-22T06:09:51;5.20;99.90
19970;DHT22;10146;47.754;9.566;2024-03-22T06:12:18;5.20;99.90
19970;DHT22;10146;47.754;9.566;2024-03-22T06:14:43;5.30;99.90
19970;DHT22;10146;47.754;9.566;2024-03-22T06:17:10;5.40;99.90
19970;DHT22;10146;47.754;9.566;2024-03-22T06:19:36;5.60;99.90
19970;DHT22;10146;47.754;9.566;2024-03-22T06:22:02;5.70;99.90
19970;DHT22;10146;47.754;9.566;2024-03-22T06:24:28;5.80;99.90
19970;DHT22;10146;47.754;9.566;2024-03-22T06:26:54;5.90;99.90
19970;DHT22;10146;47.754;9.566;2024-03-22T06:29:20;6.00;99.90
19970;DHT22;10146;47.754;9.566;2024-03-22T06:31:46;6.10;99.90
19970;DHT22;10146;47.754;9.566;2024-03-22T06:34:11;6.10;99.90
19970;DHT22;10146;47.754;9.566;2024-03-22T06:36:37;6.20;99.90
19970;DHT22;10146;47.754;9.566;2024-03-22T06:39:02;6.30;99.90
19970;DHT22;10146;47.754;9.566;2024-03-22T06:41:32;6.40;99.90
19970;DHT22;10146;47.754;9.566;2024-03-22T06:43:57;6.40;99.90
19970;DHT22;10146;47.754;9.566;2024-03-22T06:46:23;6.60;99.90
19970;DHT22;10146;47.754;9.566;2024-03-22T06:48:50;6.70;99.90
19970;DHT22;10146;47.754;9.566;2024-03-22T06:51:16;6.80;99.90
19970;DHT22;10146;47.754;9.566;2024-03-22T06:53:41;6.90;99.90
19970;DHT22;10146;47.754;9.566;2024-03-22T06:56:07;6.90;99.90
19970;DHT22;10146;47.754;9.566;2024-03-22T06:58:35;7.00;99.90
19970;DHT22;10146;47.754;9.566;2024-03-22T07:01:01;7.10;99.90
19970;DHT22;10146;47.754;9.566;2024-03-22T07:03:27;7.10;99.90
19970;DHT22;10146;47.754;9.566;2024-03-22T07:05:52;7.20;99.90
19970;DHT22;10146;47.754;9.566;2024-03-22T07:08:18;7.30;99.90
19970;DHT22;10146;47.754;9.566;2024-03-22T07:10:44;7.50;99.90
19970;DHT22;10146;47.754;9.566;2024-03-22T07:13:11;7.50;99.90
19970;DHT22;10146;47.754;9.566;2024-03-22T07:15:37;7.60;99.90
19970;DHT22;10146;47.754;9.566;2024-03-22T07:18:03;7.70;99.90
19970;DHT22;10146;47.754;9.566;2024-03-22T07:20:30;7.80;99.90
19970;DHT22;10146;47.754;9.566;2024-03-22T07:22:55;7.90;99.90
19970;DHT22;10146;47.754;9.566;2024-03-22T07:25:21;7.90;99.90
19970;DHT22;10146;47.754;9.566;2024-03-22T07:27:46;8.00;99.90
19970;DHT22;10146;47.754;9.566;2024-03-22T07:30:14;8.10;99.90
19970;DHT22;10146;47.754;9.566;2024-03-22T07:32:40;8.20;99.90
19970;DHT22;10146;47.754;9.566;2024-03-22T07:35:05;8.20;99.90
19970;DHT22;10146;47.754;9.566;2024-03-22T07:37:33;8.30;99.90
19970;DHT22;10146;47.754;9.566;2024-03-22T07:39:59;8.40;99.90
19970;DHT22;10146;47.754;9.566;2024-03-22T07:42:25;8.60;99.90
19970;DHT22;10146;47.754;9.566;2024-03-22T07:44:50;8.80;99.90
19970;DHT22;10146;47.754;9.566;2024-03-22T07:47:16;9.00;99.90
19970;DHT22;10146;47.754;9.566;2024-03-22T07:49:42;9.10;99.90
19970;DHT22;10146;47.754;9.566;2024-03-22T07:52:07;9.30;99.90
19970;DHT22;10146;47.754;9.566;2024-03-22T07:54:33;9.40;99.90
19970;DHT22;10146;47.754;9.566;2024-03-22T07:56:58;9.50;99.90
19970;DHT22;10146;47.754;9.566;2024-03-22T07:59:24;9.70;99.90
19970;DHT22;10146;47.754;9.566;2024-03-22T08:01:50;9.70;99.90
19970;DHT22;10146;47.754;9.566;2024-03-22T08:04:16;9.90;99.90
19970;DHT22;10146;47.754;9.566;2024-03-22T08:06:42;10.00;99.90
19970;DHT22;10146;47.754;9.566;2024-03-22T08:09:07;10.20;99.90
19970;DHT22;10146;47.754;9.566;2024-03-22T08:11:33;10.30;99.90
19970;DHT22;10146;47.754;9.566;2024-03-22T08:13:59;10.50;99.90
19970;DHT22;10146;47.754;9.566;2024-03-22T08:16:29;10.70;99.90
19970;DHT22;10146;47.754;9.566;2024-03-22T08:18:55;10.80;99.90
19970;DHT22;10146;47.754;9.566;2024-03-22T08:21:22;10.90;99.90
19970;DHT22;10146;47.754;9.566;2024-03-22T08:23:48;11.00;99.90
19970;DHT22;10146;47.754;9.566;2024-03-22T08:26:14;11.00;99.90
19970;DHT22;10146;47.754;9.566;2024-03-22T08:28:39;11.10;99.90
19970;DHT22;10146;47.754;9.566;2024-03-22T08:31:05;11.10;99.90
19970;DHT22;10146;47.754;9.566;2024-03-22T08:33:31;11.20;99.90
19970;DHT22;10146;47.754;9.566;2024-03-22T08:35:56;11.30;99.90
19970;DHT22;10146;47.754;9.566;2024-03-22T08:38:22;11.30;99.90
19970;DHT22;10146;47.754;9.566;2024-03-22T08:40:50;11.40;99.90
19970;DHT22;10146;47.754;9.566;2024-03-22T08:43:15;11.50;99.90
19970;DHT22;10146;47.754;9.566;2024-03-22T08:45:41;11.50;99.90
19970;DHT22;10146;47.754;9.566;2024-03-22T08:48:07;11.60;99.90
19970;DHT22;10146;47.754;9.566;2024-03-22T08:50:33;11.70;99.90
19970;DHT22;10146;47.754;9.566;2024-03-22T08:52:59;11.80;99.90
19970;DHT22;10146;47.754;9.566;2024-03-22T08:55:24;12.00;99.90
19970;DHT22;10146;47.754;9.566;2024-03-22T08:57:50;12.10;99.90
19970;DHT22;10146;47.754;9.566;2024-03-22T09:00:17;12.20;99.90
19970;DHT22;10146;47.754;9.566;2024-03-22T09:02:42;12.30;99.90
19970;DHT22;10146;47.754;9.566;2024-03-22T09:05:08;12.40;99.90
19970;DHT22;10146;47.754;9.566;2024-03-22T09:07:34;12.50;99.90
19970;DHT22;10146;47.754;9.566;2024-03-22T09:09:59;12.60;99.90
19970;DHT22;10146;47.754;9.566;2024-03-22T09:12:25;12.60;99.90
19970;DHT22;10146;47.754;9.566;2024-03-22T09:14:51;12.60;99.90
19970;DHT22;10146;47.754;9.566;2024-03-22T09:17:16;12.70;99.90
19970;DHT22;10146;47.754;9.566;2024-03-22T09:19:42;12.80;99.90
19970;DHT22;10146;47.754;9.566;2024-03-22T09:22:07;12.90;99.90
19970;DHT22;10146;47.754;9.566;2024-03-22T09:24:33;13.00;99.90
19970;DHT22;10146;47.754;9.566;2024-03-22T09:26:58;13.10;99.90
19970;DHT22;10146;47.754;9.566;2024-03-22T09:29:24;13.10;99.90
19970;DHT22;10146;47.754;9.566;2024-03-22T09:31:50;13.20;99.90
19970;DHT22;10146;47.754;9.566;2024-03-22T09:34:18;13.20;99.90
19970;DHT22;10146;47.754;9.566;2024-03-22T09:36:45;13.30;99.90
19970;DHT22;10146;47.754;9.566;2024-03-22T09:39:11;13.30;99.90
19970;DHT22;10146;47.754;9.566;2024-03-22T09:41:43;13.40;99.90
19970;DHT22;10146;47.754;9.566;2024-03-22T09:44:13;13.50;99.90
19970;DHT22;10146;47.754;9.566;2024-03-22T09:46:40;13.60;99.90
19970;DHT22;10146;47.754;9.566;2024-03-22T09:49:11;13.60;99.90
19970;DHT22;10146;47.754;9.566;2024-03-22T09:51:37;13.70;99.90
19970;DHT22;10146;47.754;9.566;2024-03-22T09:54:04;13.80;99.90
19970;DHT22;10146;47.754;9.566;2024-03-22T09:56:31;13.80;99.90
19970;DHT22;10146;47.754;9.566;2024-03-22T09:58:57;13.80;99.90
19970;DHT22;10146;47.754;9.566;2024-03-22T10:01:24;13.90;99.90
19970;DHT22;10146;47.754;9.566;2024-03-22T10:03:51;14.00;99.90
19970;DHT22;10146;47.754;9.566;2024-03-22T10:06:18;14.00;99.90
19970;DHT22;10146;47.754;9.566;2024-03-22T10:08:44;14.00;99.90
19970;DHT22;10146;47.754;9.566;2024-03-22T10:11:10;14.10;99.90
19970;DHT22;10146;47.754;9.566;2024-03-22T10:13:36;14.20;99.90
19970;DHT22;10146;47.754;9.566;2024-03-22T10:16:02;14.30;99.90
19970;DHT22;10146;47.754;9.566;2024-03-22T10:18:28;14.40;99.90
19970;DHT22;10146;47.754;9.566;2024-03-22T10:23:26;14.60;99.90
19970;DHT22;10146;47.754;9.566;2024-03-22T10:25:52;14.70;99.90
19970;DHT22;10146;47.754;9.566;2024-03-22T10:28:17;14.70;99.90
19970;DHT22;10146;47.754;9.566;2024-03-22T10:30:44;14.90;99.90
19970;DHT22;10146;47.754;9.566;2024-03-22T10:33:13;14.90;99.90
19970;DHT22;10146;47.754;9.566;2024-03-22T10:35:40;15.10;99.90
19970;DHT22;10146;47.754;9.566;2024-03-22T10:38:07;15.20;99.90
19970;DHT22;10146;47.754;9.566;2024-03-22T10:40:33;15.30;99.90
19970;DHT22;10146;47.754;9.566;2024-03-22T10:43:00;15.30;99.90
19970;DHT22;10146;47.754;9.566;2024-03-22T10:45:29;15.30;99.90
19970;DHT22;10146;47.754;9.566;2024-03-22T10:47:55;15.40;99.90
19970;DHT22;10146;47.754;9.566;2024-03-22T10:50:22;15.50;99.90
19970;DHT22;10146;47.754;9.566;2024-03-22T10:52:53;15.50;99.90
19970;DHT22;10146;47.754;9.566;2024-03-22T10:55:32;15.50;99.90
19970;DHT22;10146;47.754;9.566;2024-03-22T10:57:58;15.70;99.90
19970;DHT22;10146;47.754;9.566;2024-03-22T11:00:28;15.80;99.90
19970;DHT22;10146;47.754;9.566;2024-03-22T11:02:54;15.80;99.90
19970;DHT22;10146;47.754;9.566;2024-03-22T11:05:20;15.90;99.90
19970;DHT22;10146;47.754;9.566;2024-03-22T11:07:46;16.00;99.90
19970;DHT22;10146;47.754;9.566;2024-03-22T11:10:12;16.10;99.90
19970;DHT22;10146;47.754;9.566;2024-03-22T11:12:41;16.20;99.90
19970;DHT22;10146;47.754;9.566;2024-03-22T11:15:08;16.30;99.90
19970;DHT22;10146;47.754;9.566;2024-03-22T11:17:34;16.40;99.90
19970;DHT22;10146;47.754;9.566;2024-03-22T11:20:00;16.50;99.90
19970;DHT22;10146;47.754;9.566;2024-03-22T11:22:26;16.60;99.90
19970;DHT22;10146;47.754;9.566;2024-03-22T11:24:55;16.70;99.90
19970;DHT22;10146;47.754;9.566;2024-03-22T11:27:20;16.70;99.90
19970;DHT22;10146;47.754;9.566;2024-03-22T11:29:46;16.80;99.90
19970;DHT22;10146;47.754;9.566;2024-03-22T11:32:12;16.80;99.90
19970;DHT22;10146;47.754;9.566;2024-03-22T11:34:38;16.90;99.90
19970;DHT22;10146;47.754;9.566;2024-03-22T11:37:05;16.80;99.90
19970;DHT22;10146;47.754;9.566;2024-03-22T11:39:33;16.80;99.90
19970;DHT22;10146;47.754;9.566;2024-03-22T11:42:01;16.80;99.90
19970;DHT22;10146;47.754;9.566;2024-03-22T11:44:27;16.80;99.90
19970;DHT22;10146;47.754;9.566;2024-03-22T11:46:53;16.90;99.90
19970;DHT22;10146;47.754;9.566;2024-03-22T11:49:19;16.90;99.90
19970;DHT22;10146;47.754;9.566;2024-03-22T11:51:45;17.00;99.90
19970;DHT22;10146;47.754;9.566;2024-03-22T11:54:11;17.10;99.90
19970;DHT22;10146;47.754;9.566;2024-03-22T11:56:36;17.10;99.90
19970;DHT22;10146;47.754;9.566;2024-03-22T11:59:02;17.20;99.90
19970;DHT22;10146;47.754;9.566;2024-03-22T12:01:30;17.20;99.90
19970;DHT22;10146;47.754;9.566;2024-03-22T12:03:56;17.20;99.90
19970;DHT22;10146;47.754;9.566;2024-03-22T12:06:24;17.30;99.90
19970;DHT22;10146;47.754;9.566;2024-03-22T12:08:49;17.50;99.90
19970;DHT22;10146;47.754;9.566;2024-03-22T12:11:16;17.60;99.90
19970;DHT22;10146;47.754;9.566;2024-03-22T12:13:42;17.50;99.90
19970;DHT22;10146;47.754;9.566;2024-03-22T12:16:07;17.70;99.90
19970;DHT22;10146;47.754;9.566;2024-03-22T12:18:33;17.60;99.90
19970;DHT22;10146;47.754;9.566;2024-03-22T12:21:00;17.80;99.90
19970;DHT22;10146;47.754;9.566;2024-03-22T12:23:25;17.90;99.90
19970;DHT22;10146;47.754;9.566;2024-03-22T12:25:51;18.00;99.90
19970;DHT22;10146;47.754;9.566;2024-03-22T12:28:18;18.10;99.90
19970;DHT22;10146;47.754;9.566;2024-03-22T12:30:44;18.10;99.90
19970;DHT22;10146;47.754;9.566;2024-03-22T12:33:09;18.10;99.90
19970;DHT22;10146;47.754;9.566;2024-03-22T12:35:39;18.20;99.90
19970;DHT22;10146;47.754;9.566;2024-03-22T12:38:05;18.00;99.90
19970;DHT22;10146;47.754;9.566;2024-03-22T12:40:31;18.00;99.90
19970;DHT22;10146;47.754;9.566;2024-03-22T12:42:58;18.10;99.90
19970;DHT22;10146;47.754;9.566;2024-03-22T12:45:24;18.20;99.70
19970;DHT22;10146;47.754;9.566;2024-03-22T12:47:49;18.20;98.30
19970;DHT22;10146;47.754;9.566;2024-03-22T12:50:15;18.20;97.80
19970;DHT22;10146;47.754;9.566;2024-03-22T12:52:41;18.30;98.20
19970;DHT22;10146;47.754;9.566;2024-03-22T12:55:07;18.20;98.30
19970;DHT22;10146;47.754;9.566;2024-03-22T12:57:33;18.30;99.00
19970;DHT22;10146;47.754;9.566;2024-03-22T12:59:58;18.10;97.90
19970;DHT22;10146;47.754;9.566;2024-03-22T13:02:24;18.20;97.40
19970;DHT22;10146;47.754;9.566;2024-03-22T13:04:52;18.20;95.00
19970;DHT22;10146;47.754;9.566;2024-03-22T13:07:19;18.30;94.40
19970;DHT22;10146;47.754;9.566;2024-03-22T13:09:45;18.50;94.10
19970;DHT22;10146;47.754;9.566;2024-03-22T13:12:10;18.60;94.10
19970;DHT22;10146;47.754;9.566;2024-03-22T13:14:36;18.70;92.30
19970;DHT22;10146;47.754;9.566;2024-03-22T13:17:02;18.80;92.60
19970;DHT22;10146;47.754;9.566;2024-03-22T13:19:27;19.00;93.40
19970;DHT22;10146;47.754;9.566;2024-03-22T13:21:53;19.00;88.20
19970;DHT22;10146;47.754;9.566;2024-03-22T13:24:19;19.20;85.00
19970;DHT22;10146;47.754;9.566;2024-03-22T13:26:44;19.40;81.90
19970;DHT22;10146;47.754;9.566;2024-03-22T13:29:10;19.50;82.00
19970;DHT22;10146;47.754;9.566;2024-03-22T13:31:38;19.90;78.10
19970;DHT22;10146;47.754;9.566;2024-03-22T13:34:03;19.90;77.40
19970;DHT22;10146;47.754;9.566;2024-03-22T13:36:29;20.20;74.00
19970;DHT22;10146;47.754;9.566;2024-03-22T13:38:58;20.30;69.90
19970;DHT22;10146;47.754;9.566;2024-03-22T13:41:23;20.40;68.60
19970;DHT22;10146;47.754;9.566;2024-03-22T13:43:49;20.40;68.30
19970;DHT22;10146;47.754;9.566;2024-03-22T13:46:15;20.50;69.80
19970;DHT22;10146;47.754;9.566;2024-03-22T13:48:43;20.20;64.50
19970;DHT22;10146;47.754;9.566;2024-03-22T13:51:08;20.20;66.20
19970;DHT22;10146;47.754;9.566;2024-03-22T13:53:34;20.30;66.60
19970;DHT22;10146;47.754;9.566;2024-03-22T13:56:00;20.50;67.70
19970;DHT22;10146;47.754;9.566;2024-03-22T13:58:26;20.60;64.70
19970;DHT22;10146;47.754;9.566;2024-03-22T14:00:52;20.60;64.70
19970;DHT22;10146;47.754;9.566;2024-03-22T14:03:18;20.70;69.20
19970;DHT22;10146;47.754;9.566;2024-03-22T14:05:44;20.90;63.40
19970;DHT22;10146;47.754;9.566;2024-03-22T14:08:09;20.70;64.20
19970;DHT22;10146;47.754;9.566;2024-03-22T14:10:35;20.60;65.80
19970;DHT22;10146;47.754;9.566;2024-03-22T14:13:01;20.70;65.60
19970;DHT22;10146;47.754;9.566;2024-03-22T14:15:27;21.10;64.60
19970;DHT22;10146;47.754;9.566;2024-03-22T14:17:57;21.30;62.50
19970;DHT22;10146;47.754;9.566;2024-03-22T14:20:23;21.30;61.50
19970;DHT22;10146;47.754;9.566;2024-03-22T14:22:50;21.40;62.40
19970;DHT22;10146;47.754;9.566;2024-03-22T14:25:16;21.40;62.10
19970;DHT22;10146;47.754;9.566;2024-03-22T14:27:42;21.50;61.80
19970;DHT22;10146;47.754;9.566;2024-03-22T14:30:12;21.50;61.30
19970;DHT22;10146;47.754;9.566;2024-03-22T14:32:39;21.40;60.60
19970;DHT22;10146;47.754;9.566;2024-03-22T14:35:06;21.40;60.30
19970;DHT22;10146;47.754;9.566;2024-03-22T14:37:32;21.40;60.20
19970;DHT22;10146;47.754;9.566;2024-03-22T14:39:57;21.30;59.90
19970;DHT22;10146;47.754;9.566;2024-03-22T14:42:23;21.30;62.20
19970;DHT22;10146;47.754;9.566;2024-03-22T14:44:49;21.20;60.10
19970;DHT22;10146;47.754;9.566;2024-03-22T14:47:15;21.40;61.80
19970;DHT22;10146;47.754;9.566;2024-03-22T14:49:40;21.60;61.40
19970;DHT22;10146;47.754;9.566;2024-03-22T14:52:07;22.20;59.40
19970;DHT22;10146;47.754;9.566;2024-03-22T14:54:33;22.50;60.10
19970;DHT22;10146;47.754;9.566;2024-03-22T14:56:58;22.70;57.80
19970;DHT22;10146;47.754;9.566;2024-03-22T14:59:28;22.90;57.20
19970;DHT22;10146;47.754;9.566;2024-03-22T15:01:53;22.10;57.00
19970;DHT22;10146;47.754;9.566;2024-03-22T15:04:20;22.10;57.10
19970;DHT22;10146;47.754;9.566;2024-03-22T15:06:46;22.20;56.60
19970;DHT22;10146;47.754;9.566;2024-03-22T15:09:13;22.30;57.10
19970;DHT22;10146;47.754;9.566;2024-03-22T15:11:39;22.80;56.10
19970;DHT22;10146;47.754;9.566;2024-03-22T15:14:05;23.50;54.50
19970;DHT22;10146;47.754;9.566;2024-03-22T15:16:31;24.20;52.90
19970;DHT22;10146;47.754;9.566;2024-03-22T15:18:56;25.00;52.40
19970;DHT22;10146;47.754;9.566;2024-03-22T15:21:22;25.30;51.70
19970;DHT22;10146;47.754;9.566;2024-03-22T15:23:48;25.60;49.80
19970;DHT22;10146;47.754;9.566;2024-03-22T15:26:13;25.70;48.10
19970;DHT22;10146;47.754;9.566;2024-03-22T15:28:40;25.50;47.80
19970;DHT22;10146;47.754;9.566;2024-03-22T15:31:06;25.40;48.30
19970;DHT22;10146;47.754;9.566;2024-03-22T15:33:32;25.40;48.90